Church Street, Georgia
Current Conditions -  °F | °C
As of 10:52 AM on Friday 24 Oct 2014 (Local Time) from KATL Reporting Station
Scattered Clouds Scattered Clouds  
Wind Chill: 61°   Ceiling: Unl
Heat Index: 61°   Visibility: 10mi
Dew Point: 48°   Wind: 5mph
Humidity: 62%   Direction: NA
Pressure: 30.08"   Gusts: NA
Location:  33.559°N, 84.4436°W
Report Text: KATL 241452Z VRB04KT 10SM FEW150 SCT200 SCT250 16/09 A3008 RMK AO2 SLP183 T01610089 50007
Loading
Personal Weather Stations






























Interactive Weather Map New forecast layout! Learn more

10-Day Weather Forecast

Advertisements
Track Severe Weather on mobile